createdAt,value
2023-02-02T00:02:01.148Z,1.58
2023-02-02T00:04:32.942Z,2.03
2023-02-02T00:07:00.212Z,2.03
2023-02-02T00:09:29.227Z,1.90
2023-02-02T00:11:56.606Z,2.38
2023-02-02T00:14:23.668Z,1.58
2023-02-02T00:16:55.081Z,2.13
2023-02-02T00:19:30.020Z,2.53
2023-02-02T00:21:56.516Z,3.05
2023-02-02T00:24:23.729Z,2.47
2023-02-02T00:26:52.934Z,1.45
2023-02-02T00:29:22.240Z,1.93
2023-02-02T00:31:49.267Z,1.48
2023-02-02T00:34:16.579Z,2.58
2023-02-02T00:36:44.143Z,2.83
2023-02-02T00:39:17.464Z,1.85
2023-02-02T00:41:44.174Z,1.77
2023-02-02T00:44:29.276Z,1.63
2023-02-02T00:46:55.864Z,1.75
2023-02-02T00:49:22.857Z,2.00
2023-02-02T00:51:50.319Z,2.10
2023-02-02T00:54:16.780Z,1.67
2023-02-02T00:56:43.457Z,2.35
2023-02-02T00:59:11.407Z,1.40
2023-02-02T01:01:37.931Z,1.95
2023-02-02T01:04:04.498Z,2.42
2023-02-02T01:06:31.312Z,2.10
2023-02-02T01:08:57.910Z,2.03
2023-02-02T01:11:25.642Z,1.80
2023-02-02T01:13:53.622Z,1.92
2023-02-02T01:16:22.510Z,1.85
2023-02-02T01:18:49.975Z,1.57
2023-02-02T01:21:16.467Z,1.83
2023-02-02T01:23:42.988Z,3.33
2023-02-02T01:26:11.580Z,1.30
2023-02-02T01:28:39.012Z,2.13
2023-02-02T01:31:15.650Z,1.50
2023-02-02T01:33:43.839Z,1.05
2023-02-02T01:36:13.718Z,1.50
2023-02-02T01:38:41.043Z,1.98
2023-02-02T01:41:11.973Z,1.90
2023-02-02T01:43:41.433Z,1.57
2023-02-02T01:46:11.914Z,1.67
2023-02-02T01:48:41.770Z,1.75
2023-02-02T01:51:14.084Z,2.20
2023-02-02T01:53:41.847Z,2.03
2023-02-02T01:56:12.264Z,2.00
2023-02-02T01:58:41.705Z,1.13
2023-02-02T02:01:09.538Z,1.50
2023-02-02T02:03:37.472Z,1.40
2023-02-02T02:06:07.458Z,2.05
2023-02-02T02:08:47.333Z,2.47
2023-02-02T02:11:14.307Z,1.52
2023-02-02T02:14:01.070Z,1.25
2023-02-02T02:16:45.513Z,1.65
2023-02-02T02:20:06.282Z,0.90
2023-02-02T02:23:04.165Z,1.77
2023-02-02T02:26:23.368Z,2.03
2023-02-02T02:29:16.446Z,1.50
2023-02-02T02:32:07.396Z,1.70
2023-02-02T02:34:46.591Z,1.27
2023-02-02T02:37:32.310Z,2.00
2023-02-02T02:40:25.297Z,1.42
2023-02-02T02:42:58.226Z,1.50
2023-02-02T02:45:27.343Z,0.93
2023-02-02T02:47:55.735Z,2.47
2023-02-02T02:50:23.795Z,1.60
2023-02-02T02:53:02.122Z,1.60
2023-02-02T02:55:39.449Z,0.80
2023-02-02T02:58:27.957Z,1.48
2023-02-02T03:01:07.579Z,1.25
2023-02-02T03:03:52.548Z,1.33
2023-02-02T03:06:29.159Z,1.15
2023-02-02T03:09:00.798Z,1.20
2023-02-02T03:11:27.389Z,1.23
2023-02-02T03:13:54.891Z,2.28
2023-02-02T03:16:21.334Z,1.00
2023-02-02T03:18:47.883Z,1.27
2023-02-02T03:21:14.390Z,0.90
2023-02-02T03:23:40.908Z,1.80
2023-02-02T03:26:07.494Z,1.50
2023-02-02T03:28:34.626Z,1.00
2023-02-02T03:31:02.027Z,1.45
2023-02-02T03:33:29.893Z,1.23
2023-02-02T03:35:56.482Z,1.77
2023-02-02T03:38:22.978Z,2.17
2023-02-02T03:40:50.913Z,2.20
2023-02-02T03:43:22.152Z,2.28
2023-02-02T03:45:48.694Z,2.40
2023-02-02T03:48:15.212Z,2.70
2023-02-02T03:50:41.720Z,3.17
2023-02-02T03:53:08.189Z,2.70
2023-02-02T03:55:35.134Z,3.22
2023-02-02T03:58:01.608Z,3.70
2023-02-02T04:00:28.108Z,3.25
2023-02-02T04:02:54.995Z,4.05
2023-02-02T04:05:21.652Z,3.10
2023-02-02T04:07:49.117Z,4.00
2023-02-02T04:10:15.774Z,3.22
2023-02-02T04:12:42.362Z,4.63
2023-02-02T04:15:09.467Z,4.07
2023-02-02T04:17:36.112Z,4.90
2023-02-02T04:20:04.743Z,5.18
2023-02-02T04:22:31.338Z,5.78
2023-02-02T04:24:57.911Z,6.70
2023-02-02T04:27:24.500Z,6.40
2023-02-02T04:29:50.938Z,5.87
2023-02-02T04:32:18.557Z,7.20
2023-02-02T04:34:45.452Z,6.40
2023-02-02T04:37:12.092Z,7.00
2023-02-02T04:39:38.549Z,7.90
2023-02-02T04:42:05.238Z,7.33
2023-02-02T04:44:31.797Z,6.35
2023-02-02T04:46:58.312Z,5.55
2023-02-02T04:49:24.823Z,6.13
2023-02-02T04:51:51.409Z,7.32
2023-02-02T04:54:18.156Z,5.37
2023-02-02T04:56:44.637Z,6.35
2023-02-02T04:59:11.091Z,6.10
2023-02-02T05:01:37.585Z,6.68
2023-02-02T05:04:04.169Z,6.55
2023-02-02T05:06:30.642Z,6.03
2023-02-02T05:08:57.196Z,5.53
2023-02-02T05:11:23.969Z,6.30
2023-02-02T05:13:52.457Z,5.95
2023-02-02T05:16:19.334Z,5.57
2023-02-02T05:18:53.692Z,6.73
2023-02-02T05:21:20.964Z,6.30
2023-02-02T05:23:47.633Z,6.78
2023-02-02T05:26:23.082Z,5.85
2023-02-02T05:28:49.654Z,4.97
2023-02-02T05:31:16.241Z,5.23
2023-02-02T05:33:42.853Z,6.32
2023-02-02T05:36:09.588Z,6.35
2023-02-02T05:38:36.188Z,5.55
2023-02-02T05:41:02.740Z,5.90
2023-02-02T05:43:31.177Z,5.17
2023-02-02T05:45:57.745Z,5.50
2023-02-02T05:48:24.586Z,6.18
2023-02-02T05:51:00.823Z,5.50
2023-02-02T05:53:29.279Z,5.20
2023-02-02T05:55:55.761Z,5.73
2023-02-02T05:58:22.428Z,4.90
2023-02-02T06:00:49.102Z,5.43
2023-02-02T06:03:15.718Z,5.38
2023-02-02T06:05:42.459Z,5.28
2023-02-02T06:08:08.919Z,5.60
2023-02-02T06:10:35.445Z,4.85
2023-02-02T06:13:01.965Z,6.20
2023-02-02T06:15:29.398Z,4.63
2023-02-02T06:17:55.965Z,5.22
2023-02-02T06:20:22.650Z,5.30
2023-02-02T06:22:49.194Z,6.20
2023-02-02T06:25:15.847Z,5.97
2023-02-02T06:27:42.426Z,5.70
2023-02-02T06:30:09.564Z,6.45
2023-02-02T06:32:35.992Z,5.60
2023-02-02T06:35:02.616Z,5.32
2023-02-02T06:37:30.773Z,4.85
2023-02-02T06:39:57.426Z,5.85
2023-02-02T06:42:23.935Z,5.82
2023-02-02T06:44:50.359Z,5.03
2023-02-02T06:47:16.996Z,5.60
2023-02-02T06:49:43.824Z,5.57
2023-02-02T06:52:10.850Z,5.78
2023-02-02T06:54:37.337Z,6.13
2023-02-02T06:57:03.900Z,5.57
2023-02-02T06:59:30.396Z,5.30
2023-02-02T07:01:57.013Z,4.63
2023-02-02T07:04:23.585Z,4.93
2023-02-02T07:06:50.149Z,5.07
2023-02-02T07:09:16.907Z,5.83
2023-02-02T07:11:44.782Z,6.80
2023-02-02T07:14:12.135Z,4.70
2023-02-02T07:16:38.668Z,4.47
2023-02-02T07:19:05.220Z,6.65
2023-02-02T07:21:35.966Z,4.30
2023-02-02T07:24:03.833Z,5.80
2023-02-02T07:26:30.436Z,5.38
2023-02-02T07:28:57.058Z,5.88
2023-02-02T07:31:26.081Z,5.82
2023-02-02T07:33:53.959Z,5.60
2023-02-02T07:36:23.417Z,5.20
2023-02-02T07:38:54.315Z,5.50
2023-02-02T07:41:21.389Z,5.90
2023-02-02T07:43:48.812Z,6.22
2023-02-02T07:46:16.768Z,5.40
2023-02-02T07:48:43.596Z,5.85
2023-02-02T07:51:13.700Z,6.07
2023-02-02T07:53:43.972Z,5.43
2023-02-02T07:56:13.299Z,4.88
2023-02-02T07:58:39.886Z,5.67
2023-02-02T08:01:08.232Z,5.47
2023-02-02T08:03:35.997Z,5.05
2023-02-02T08:06:09.459Z,5.28
2023-02-02T08:08:36.013Z,6.50
2023-02-02T08:11:02.472Z,5.30
2023-02-02T08:13:29.044Z,5.57
2023-02-02T08:15:58.025Z,6.07
2023-02-02T08:18:24.594Z,6.28
2023-02-02T08:20:52.656Z,6.00
2023-02-02T08:23:23.591Z,5.00
2023-02-02T08:25:50.767Z,5.80
2023-02-02T08:28:18.129Z,5.38
2023-02-02T08:30:45.083Z,5.63
2023-02-02T08:33:12.613Z,5.63
2023-02-02T08:35:43.105Z,6.10
2023-02-02T08:38:10.218Z,5.55
2023-02-02T08:40:36.705Z,6.38
2023-02-02T08:43:03.688Z,6.35
2023-02-02T08:46:01.172Z,6.05
2023-02-02T08:48:19.782Z,6.00
2023-02-02T08:50:52.376Z,5.90
2023-02-02T08:53:18.869Z,6.70
2023-02-02T08:55:45.411Z,4.97
2023-02-02T08:58:11.984Z,5.88
2023-02-02T09:00:38.609Z,6.80
2023-02-02T09:03:05.418Z,6.03
2023-02-02T09:05:31.969Z,5.03
2023-02-02T09:07:58.543Z,6.25
2023-02-02T09:10:25.084Z,6.13
2023-02-02T09:12:51.564Z,5.03
2023-02-02T09:15:18.071Z,6.03
2023-02-02T09:17:45.116Z,6.28
2023-02-02T09:20:12.142Z,5.60
2023-02-02T09:22:38.623Z,6.45
2023-02-02T09:25:05.424Z,4.80
2023-02-02T09:27:37.527Z,7.47
2023-02-02T09:30:04.580Z,5.10
2023-02-02T09:32:31.074Z,5.18
2023-02-02T09:34:57.584Z,4.93
2023-02-02T09:37:24.100Z,6.07
2023-02-02T09:39:50.613Z,4.60
2023-02-02T09:42:34.770Z,4.20
2023-02-02T09:45:11.769Z,4.38
2023-02-02T09:47:52.076Z,4.00
2023-02-02T09:50:40.119Z,3.83
2023-02-02T09:53:26.168Z,4.05
2023-02-02T09:56:00.299Z,4.65
2023-02-02T09:58:51.121Z,4.05
2023-02-02T10:01:22.071Z,3.72
2023-02-02T10:04:01.216Z,4.30
2023-02-02T10:06:36.752Z,3.72
2023-02-02T10:09:26.393Z,3.75
2023-02-02T10:12:33.395Z,3.17
2023-02-02T10:15:17.670Z,4.30
2023-02-02T10:18:05.770Z,3.23
2023-02-02T10:20:47.705Z,3.75
2023-02-02T10:23:28.227Z,4.13
2023-02-02T10:26:24.283Z,3.47
2023-02-02T10:29:11.953Z,3.80
2023-02-02T10:32:23.076Z,3.63
2023-02-02T10:35:14.624Z,3.83
2023-02-02T10:37:54.186Z,3.75
2023-02-02T10:40:36.693Z,3.25
2023-02-02T10:43:37.069Z,3.08
2023-02-02T10:46:05.086Z,3.80
2023-02-02T10:48:35.996Z,3.33
2023-02-02T10:51:31.936Z,2.97
2023-02-02T10:54:01.692Z,3.78
2023-02-02T10:56:39.191Z,3.90
2023-02-02T10:59:19.037Z,3.80
2023-02-02T11:01:45.822Z,3.10
2023-02-02T11:04:31.130Z,4.05
2023-02-02T11:06:59.797Z,3.85
2023-02-02T11:09:32.402Z,4.38
2023-02-02T11:12:13.844Z,4.70
2023-02-02T11:14:48.224Z,4.10
2023-02-02T11:17:23.808Z,4.20
2023-02-02T11:19:51.269Z,4.85
2023-02-02T11:22:36.871Z,4.30
2023-02-02T11:25:07.160Z,4.17
2023-02-02T11:27:42.234Z,5.40
2023-02-02T11:30:19.476Z,4.57
2023-02-02T11:32:47.932Z,5.28
2023-02-02T11:35:29.691Z,5.32
2023-02-02T11:38:08.914Z,6.30
2023-02-02T11:40:55.600Z,6.70
2023-02-02T11:43:24.971Z,6.75
2023-02-02T11:46:06.400Z,5.82
2023-02-02T11:48:38.841Z,5.70
2023-02-02T11:51:06.777Z,6.07
2023-02-02T11:53:40.581Z,6.07
2023-02-02T11:56:17.622Z,7.18
2023-02-02T11:59:03.602Z,6.28
2023-02-02T12:01:35.873Z,6.30
2023-02-02T12:04:21.298Z,5.67
2023-02-02T12:06:47.863Z,5.82
2023-02-02T12:09:17.807Z,6.47
2023-02-02T12:12:02.608Z,5.40
2023-02-02T12:14:48.901Z,6.18
2023-02-02T12:17:28.533Z,6.27
2023-02-02T12:20:15.825Z,5.55
2023-02-02T12:22:57.473Z,6.22
2023-02-02T12:25:43.117Z,5.95
2023-02-02T12:28:26.659Z,5.43
2023-02-02T12:31:31.131Z,6.30
2023-02-02T12:34:11.975Z,6.05
2023-02-02T12:36:59.208Z,5.28
2023-02-02T12:39:30.538Z,6.53
2023-02-02T12:42:16.567Z,6.10
2023-02-02T12:44:58.854Z,5.63
2023-02-02T12:47:43.221Z,5.60
2023-02-02T12:50:41.033Z,5.15
2023-02-02T12:53:38.214Z,5.00
2023-02-02T12:56:22.771Z,5.32
2023-02-02T12:59:04.464Z,5.67
2023-02-02T13:02:08.692Z,5.85
2023-02-02T13:05:04.757Z,6.68
2023-02-02T13:07:49.524Z,5.95
2023-02-02T13:10:34.636Z,5.63
2023-02-02T13:13:16.738Z,5.77
2023-02-02T13:15:47.468Z,5.53
2023-02-02T13:18:25.865Z,5.22
2023-02-02T13:21:02.664Z,5.40
2023-02-02T13:23:35.337Z,4.70
2023-02-02T13:26:15.565Z,4.40
2023-02-02T13:29:10.118Z,4.82
2023-02-02T13:31:50.623Z,4.63
2023-02-02T13:34:28.912Z,4.20
2023-02-02T13:37:11.388Z,3.80
2023-02-02T13:39:46.047Z,3.97
2023-02-02T13:42:43.600Z,5.03
2023-02-02T13:45:18.812Z,4.00
2023-02-02T13:47:52.625Z,3.88
2023-02-02T13:50:22.028Z,3.88
2023-02-02T13:53:07.991Z,4.20
2023-02-02T13:55:53.273Z,3.30
2023-02-02T13:58:39.471Z,4.38
2023-02-02T14:01:08.853Z,4.20
2023-02-02T14:03:44.749Z,3.22
2023-02-02T14:06:20.687Z,4.33
2023-02-02T14:09:02.544Z,3.90
2023-02-02T14:11:32.393Z,3.97
2023-02-02T14:14:19.342Z,3.92
2023-02-02T14:16:48.775Z,4.18
2023-02-02T14:19:40.846Z,4.23
2023-02-02T14:22:14.714Z,4.25
2023-02-02T14:24:45.031Z,3.17
2023-02-02T14:27:11.540Z,3.83
2023-02-02T14:29:59.271Z,4.53
2023-02-02T14:32:27.680Z,4.87
2023-02-02T14:34:58.146Z,4.60
2023-02-02T14:37:24.594Z,4.28
2023-02-02T14:39:54.017Z,4.05
2023-02-02T14:43:04.276Z,3.92
2023-02-02T14:45:39.087Z,4.07
2023-02-02T14:48:19.797Z,4.68
2023-02-02T14:51:13.311Z,4.18
2023-02-02T14:53:46.911Z,4.00
2023-02-02T14:56:14.637Z,4.68
2023-02-02T14:58:47.704Z,3.83
2023-02-02T15:01:17.067Z,3.90
2023-02-02T15:03:43.497Z,4.28
2023-02-02T15:06:37.411Z,3.30
2023-02-02T15:09:23.229Z,2.80
2023-02-02T15:12:00.893Z,3.03
2023-02-02T15:14:33.715Z,4.40
2023-02-02T15:17:06.978Z,2.85
2023-02-02T15:19:41.070Z,2.75
2023-02-02T15:22:42.701Z,3.03
2023-02-02T15:25:31.065Z,2.63
2023-02-02T15:28:28.398Z,1.88
2023-02-02T15:31:00.806Z,2.08
2023-02-02T15:33:31.164Z,2.70
2023-02-02T15:36:03.476Z,1.60
2023-02-02T15:38:39.027Z,1.53
2023-02-02T15:41:12.344Z,1.70
2023-02-02T15:43:39.884Z,1.50
2023-02-02T15:46:13.379Z,1.67
2023-02-02T15:48:40.109Z,1.75
2023-02-02T15:51:17.555Z,1.80
2023-02-02T15:53:44.052Z,1.85
2023-02-02T15:56:29.413Z,1.63
2023-02-02T15:59:00.288Z,1.63
2023-02-02T16:01:30.421Z,1.63
2023-02-02T16:04:06.079Z,1.40
2023-02-02T16:06:34.698Z,1.48
2023-02-02T16:09:04.919Z,1.70
2023-02-02T16:11:31.479Z,1.63
2023-02-02T16:14:10.440Z,1.58
2023-02-02T16:16:39.826Z,1.50
2023-02-02T16:19:09.372Z,2.40
2023-02-02T16:21:42.740Z,2.08
2023-02-02T16:24:16.218Z,2.25
2023-02-02T16:26:42.968Z,2.38
2023-02-02T16:29:17.269Z,2.00
2023-02-02T16:31:52.943Z,2.20
2023-02-02T16:34:46.721Z,2.20
2023-02-02T16:37:16.982Z,2.60
2023-02-02T16:39:43.793Z,3.00
2023-02-02T16:42:26.871Z,2.90
2023-02-02T16:44:54.400Z,3.40
2023-02-02T16:47:27.002Z,4.00
2023-02-02T16:50:09.920Z,4.00
2023-02-02T16:52:55.097Z,4.28
2023-02-02T16:55:22.592Z,4.77
2023-02-02T16:57:50.828Z,5.15
2023-02-02T17:00:25.943Z,4.00
2023-02-02T17:03:05.267Z,5.50
2023-02-02T17:05:37.545Z,6.93
2023-02-02T17:08:07.180Z,6.30
2023-02-02T17:10:43.482Z,7.10
2023-02-02T17:13:36.287Z,7.40
2023-02-02T17:16:03.233Z,7.53
2023-02-02T17:18:29.689Z,8.27
2023-02-02T17:20:58.088Z,7.87
2023-02-02T17:23:28.189Z,8.13
2023-02-02T17:25:55.055Z,10.07
2023-02-02T17:28:23.937Z,8.73
2023-02-02T17:31:07.557Z,8.82
2023-02-02T17:33:35.326Z,8.33
2023-02-02T17:36:02.614Z,9.25
2023-02-02T17:38:29.121Z,8.60
2023-02-02T17:41:00.859Z,9.05
2023-02-02T17:43:28.636Z,8.75
2023-02-02T17:45:55.179Z,8.30
2023-02-02T17:48:21.930Z,8.70
2023-02-02T17:50:48.753Z,8.43
2023-02-02T17:53:18.244Z,8.10
2023-02-02T17:55:45.540Z,7.50
2023-02-02T17:58:14.940Z,7.80
2023-02-02T18:00:41.988Z,8.25
2023-02-02T18:03:19.586Z,7.90
2023-02-02T18:05:46.213Z,7.30
2023-02-02T18:08:13.313Z,7.45
2023-02-02T18:10:40.538Z,7.60
2023-02-02T18:13:07.411Z,7.63
2023-02-02T18:15:35.116Z,8.35
2023-02-02T18:18:02.108Z,8.32
2023-02-02T18:20:28.613Z,8.00
2023-02-02T18:22:55.015Z,7.43
2023-02-02T18:25:21.586Z,8.45
2023-02-02T18:27:50.590Z,8.27
2023-02-02T18:30:17.107Z,7.97
2023-02-02T18:32:43.853Z,7.82
2023-02-02T18:35:11.659Z,7.90
2023-02-02T18:37:38.716Z,9.15
2023-02-02T18:40:07.786Z,8.90
2023-02-02T18:42:35.161Z,9.52
2023-02-02T18:45:01.907Z,9.38
2023-02-02T18:47:28.500Z,10.40
2023-02-02T18:49:55.018Z,11.15
2023-02-02T18:52:21.562Z,12.15
2023-02-02T18:54:48.339Z,11.75
2023-02-02T18:57:15.496Z,12.30
2023-02-02T18:59:42.366Z,11.00
2023-02-02T19:02:18.522Z,12.05
2023-02-02T19:05:04.355Z,12.07
2023-02-02T19:07:51.096Z,12.45
2023-02-02T19:10:18.508Z,12.45
2023-02-02T19:12:56.832Z,13.90
2023-02-02T19:15:24.767Z,12.57
2023-02-02T19:17:53.467Z,13.90
2023-02-02T19:20:26.470Z,12.75
2023-02-02T19:23:00.162Z,12.98
2023-02-02T19:25:27.154Z,13.20
2023-02-02T19:27:53.824Z,13.82
2023-02-02T19:30:22.516Z,12.70
2023-02-02T19:32:49.202Z,14.15
2023-02-02T19:35:19.538Z,14.52
2023-02-02T19:37:48.365Z,13.50
2023-02-02T19:40:20.123Z,13.95
2023-02-02T19:42:51.332Z,14.70
2023-02-02T19:45:30.915Z,14.02
2023-02-02T19:48:00.161Z,13.05
2023-02-02T19:50:29.446Z,12.80
2023-02-02T19:52:56.311Z,12.95
2023-02-02T19:55:26.669Z,13.80
2023-02-02T19:57:57.673Z,13.38
2023-02-02T20:00:27.344Z,12.65
2023-02-02T20:03:01.900Z,12.87
2023-02-02T20:05:50.232Z,14.35
2023-02-02T20:08:36.883Z,12.75
2023-02-02T20:11:30.460Z,12.80
2023-02-02T20:13:57.032Z,12.90
2023-02-02T20:16:30.791Z,12.70
2023-02-02T20:18:57.840Z,12.57
2023-02-02T20:21:38.064Z,13.55
2023-02-02T20:24:25.811Z,13.05
2023-02-02T20:26:56.892Z,12.55
2023-02-02T20:29:27.855Z,13.73
2023-02-02T20:31:58.434Z,12.80
2023-02-02T20:34:33.382Z,11.07
2023-02-02T20:37:24.004Z,13.00
2023-02-02T20:40:02.228Z,12.20
2023-02-02T20:42:29.841Z,12.30
2023-02-02T20:44:58.011Z,11.20
2023-02-02T20:47:24.531Z,13.27
2023-02-02T20:49:50.999Z,12.40
2023-02-02T20:52:23.393Z,11.10
2023-02-02T20:54:51.080Z,11.67
2023-02-02T20:57:17.559Z,12.48
2023-02-02T20:59:44.213Z,12.38
2023-02-02T21:02:18.766Z,11.85
2023-02-02T21:04:47.154Z,11.02
2023-02-02T21:07:14.693Z,11.77
2023-02-02T21:09:41.158Z,13.23
2023-02-02T21:12:07.652Z,11.20
2023-02-02T21:14:34.204Z,11.93
2023-02-02T21:17:14.072Z,12.10
2023-02-02T21:19:41.826Z,11.53
2023-02-02T21:22:09.468Z,12.18
2023-02-02T21:24:35.948Z,11.18
2023-02-02T21:27:04.325Z,10.82
2023-02-02T21:29:31.725Z,11.82
2023-02-02T21:32:01.288Z,10.40
2023-02-02T21:34:28.857Z,9.82
2023-02-02T21:36:57.981Z,8.98
2023-02-02T21:39:36.943Z,10.68
2023-02-02T21:42:09.616Z,9.50
2023-02-02T21:44:38.744Z,9.57
2023-02-02T21:47:53.408Z,8.77
2023-02-02T21:50:25.834Z,9.50
2023-02-02T21:53:11.415Z,9.38
2023-02-02T21:55:38.948Z,8.75
2023-02-02T21:58:28.005Z,9.07
2023-02-02T22:00:58.332Z,7.72
2023-02-02T22:03:28.523Z,8.82
2023-02-02T22:06:23.982Z,8.38
2023-02-02T22:08:51.905Z,8.85
2023-02-02T22:11:29.442Z,8.63
2023-02-02T22:14:01.201Z,8.10
2023-02-02T22:16:27.932Z,8.00
2023-02-02T22:18:55.205Z,8.23
2023-02-02T22:21:21.736Z,7.57
2023-02-02T22:23:48.212Z,7.47
2023-02-02T22:26:33.102Z,7.05
2023-02-02T22:28:59.621Z,6.40
2023-02-02T22:31:26.208Z,7.88
2023-02-02T22:33:52.786Z,7.43
2023-02-02T22:36:19.169Z,6.33
2023-02-02T22:38:45.624Z,6.10
2023-02-02T22:41:12.131Z,6.70
2023-02-02T22:43:38.608Z,5.35
2023-02-02T22:46:05.230Z,5.95
2023-02-02T22:48:31.677Z,5.57
2023-02-02T22:50:58.196Z,5.65
2023-02-02T22:53:24.802Z,5.05
2023-02-02T22:55:56.379Z,5.13
2023-02-02T22:58:24.490Z,4.53
2023-02-02T23:00:51.534Z,4.63
2023-02-02T23:03:18.484Z,4.25
2023-02-02T23:05:44.997Z,4.32
2023-02-02T23:08:11.457Z,5.10
2023-02-02T23:10:38.211Z,5.30
2023-02-02T23:13:05.877Z,4.03
2023-02-02T23:15:33.093Z,4.50
2023-02-02T23:17:59.757Z,4.55
2023-02-02T23:20:26.441Z,5.05
2023-02-02T23:22:53.345Z,5.32
2023-02-02T23:25:19.891Z,4.40
2023-02-02T23:27:46.580Z,4.50
2023-02-02T23:30:14.524Z,5.30
2023-02-02T23:32:41.601Z,5.68
2023-02-02T23:35:10.602Z,5.50
2023-02-02T23:37:37.733Z,5.10
2023-02-02T23:40:04.461Z,4.93
2023-02-02T23:42:30.954Z,5.55
2023-02-02T23:44:57.552Z,4.90
2023-02-02T23:47:24.085Z,4.78
2023-02-02T23:49:50.774Z,4.77
2023-02-02T23:52:18.423Z,5.30
2023-02-02T23:54:44.941Z,5.90
2023-02-02T23:57:11.436Z,4.95
2023-02-02T23:59:37.883Z,5.65
